Time;durP1;ratioP1;P1;durP2;ratioP2;P2;SDS_P1;SDS_P2;PMS_P1;PMS_P2;Temp;Humidity;BMP_temperature;BMP_pressure;BME280_temperature;BME280_humidity;BME280_pressure;Samples;Min_cycle;Max_cycle;Signal;HPM_P1;HPM_P2
2022/12/14 00:01:26;;;;;;;40.95;22.00;;;-3.40;99.90;;;;;;5017813;28;20112;-83
2022/12/14 00:03:53;;;;;;;44.13;23.13;;;-3.40;99.90;;;;;;5017465;28;20169;-83
2022/12/14 00:06:22;;;;;;;65.28;34.08;;;-3.30;99.90;;;;;;5017115;28;20052;-83
2022/12/14 00:08:50;;;;;;;72.45;34.53;;;-3.40;99.90;;;;;;5016044;28;20061;-83
2022/12/14 00:11:16;;;;;;;94.28;44.45;;;-3.30;99.90;;;;;;5015502;28;20099;-83
2022/12/14 00:13:42;;;;;;;106.43;46.08;;;-3.30;99.90;;;;;;5015527;28;20041;-83
2022/12/14 00:16:11;;;;;;;122.50;50.22;;;-3.30;99.90;;;;;;5017981;28;20379;-83
2022/12/14 00:18:38;;;;;;;93.50;41.15;;;-3.30;99.90;;;;;;5015758;28;20056;-83
2022/12/14 00:21:05;;;;;;;61.22;30.45;;;-3.30;99.90;;;;;;5014274;28;20046;-83
2022/12/14 00:23:31;;;;;;;66.18;33.63;;;-3.30;99.90;;;;;;5014433;28;20476;-83
2022/12/14 00:25:57;;;;;;;54.35;28.08;;;-3.30;99.90;;;;;;5018862;28;20103;-83
2022/12/14 00:28:22;;;;;;;57.33;25.63;;;-3.30;99.90;;;;;;5017002;28;20057;-83
2022/12/14 00:30:54;;;;;;;47.65;22.75;;;-3.30;99.90;;;;;;5019224;28;20041;-83
2022/12/14 00:33:20;;;;;;;57.97;28.75;;;-3.30;99.90;;;;;;5019003;28;20065;-84
2022/12/14 00:35:45;;;;;;;49.97;26.95;;;-3.30;99.90;;;;;;5020807;28;20168;-83
2022/12/14 00:38:11;;;;;;;57.13;27.85;;;-3.30;99.90;;;;;;5018498;28;20117;-83
2022/12/14 00:40:37;;;;;;;53.67;26.75;;;-3.70;99.90;;;;;;5020656;28;20045;-83
2022/12/14 00:43:02;;;;;;;49.65;26.27;;;-3.40;99.90;;;;;;5019010;28;20543;-83
2022/12/14 00:45:28;;;;;;;54.30;25.02;;;-3.40;99.90;;;;;;5014254;28;20037;-83
2022/12/14 00:47:55;;;;;;;51.33;24.50;;;-3.50;99.90;;;;;;5020611;28;20354;-83
2022/12/14 00:50:21;;;;;;;50.03;24.42;;;-3.60;99.90;;;;;;5018511;28;20503;-83
2022/12/14 00:52:46;;;;;;;47.85;24.40;;;-3.60;99.90;;;;;;5011798;28;20037;-83
2022/12/14 00:55:12;;;;;;;49.45;25.77;;;-3.70;99.90;;;;;;5020763;28;20091;-83
2022/12/14 00:57:38;;;;;;;46.10;23.23;;;-3.70;99.90;;;;;;5036219;28;20466;-84
2022/12/14 01:00:04;;;;;;;46.50;22.38;;;-3.80;99.90;;;;;;5018394;28;20084;-84
2022/12/14 01:02:30;;;;;;;47.25;23.33;;;-3.80;99.90;;;;;;5023810;28;20076;-84
2022/12/14 01:04:55;;;;;;;51.47;25.77;;;-3.90;99.90;;;;;;5010640;28;20073;-83
2022/12/14 01:07:21;;;;;;;49.92;24.77;;;-3.90;99.90;;;;;;5014831;28;20045;-83
2022/12/14 01:09:47;;;;;;;48.25;23.75;;;-4.00;99.90;;;;;;5026734;28;20389;-84
2022/12/14 01:12:12;;;;;;;43.92;22.20;;;-4.00;99.90;;;;;;5017132;28;20539;-83
2022/12/14 01:14:38;;;;;;;44.13;20.35;;;-4.20;99.90;;;;;;5018707;28;20048;-84
2022/12/14 01:17:05;;;;;;;46.28;23.08;;;-4.10;99.90;;;;;;5020037;28;20529;-84
2022/12/14 01:19:31;;;;;;;45.38;21.92;;;-4.10;99.90;;;;;;5019976;28;20101;-83
2022/12/14 01:21:57;;;;;;;43.70;23.40;;;-4.20;99.90;;;;;;5018562;28;20125;-83
2022/12/14 01:24:23;;;;;;;43.55;21.95;;;-4.20;99.90;;;;;;5015301;28;20044;-82
2022/12/14 01:26:49;;;;;;;47.88;23.08;;;-3.10;99.90;;;;;;5024601;28;20050;-83
2022/12/14 01:29:15;;;;;;;45.65;23.00;;;-4.30;99.90;;;;;;5019393;28;20124;-83
2022/12/14 01:31:41;;;;;;;51.85;24.85;;;-4.30;99.90;;;;;;5015028;28;20037;-83
2022/12/14 01:34:07;;;;;;;55.33;25.92;;;-4.40;99.90;;;;;;5012908;28;20045;-83
2022/12/14 01:36:34;;;;;;;50.03;25.40;;;-4.60;99.90;;;;;;5021473;28;20139;-83
2022/12/14 01:39:08;;;;;;;51.60;25.10;;;-4.20;99.90;;;;;;5027034;28;20061;-83
2022/12/14 01:41:39;;;;;;;48.38;24.33;;;-4.50;99.90;;;;;;5011863;28;20476;-84
2022/12/14 01:44:08;;;;;;;50.58;24.45;;;-4.50;99.90;;;;;;5021104;28;20041;-84
2022/12/14 01:46:40;;;;;;;48.10;23.45;;;-4.50;99.90;;;;;;5017476;28;20038;-83
2022/12/14 01:49:27;;;;;;;49.42;24.90;;;-4.60;99.90;;;;;;5015305;28;20079;-83
2022/12/14 01:52:06;;;;;;;48.30;25.27;;;-4.60;99.90;;;;;;5025008;28;20038;-83
2022/12/14 01:54:34;;;;;;;44.90;21.90;;;-4.60;99.90;;;;;;5013461;28;20492;-83
2022/12/14 01:57:00;;;;;;;48.75;24.35;;;-4.70;99.90;;;;;;5015065;28;20049;-83
2022/12/14 01:59:35;;;;;;;47.78;24.23;;;-4.70;99.90;;;;;;5016228;28;20030;-83
2022/12/14 02:02:04;;;;;;;47.40;24.13;;;-5.10;99.90;;;;;;5013378;28;20034;-83
2022/12/14 02:04:32;;;;;;;46.55;23.92;;;-4.80;99.90;;;;;;5010040;28;20092;-83
2022/12/14 02:06:58;;;;;;;49.55;24.88;;;-5.10;99.90;;;;;;5012586;28;20045;-83
2022/12/14 02:09:28;;;;;;;52.60;23.30;;;-4.90;99.90;;;;;;5018083;28;20035;-83
2022/12/14 02:12:01;;;;;;;49.53;24.83;;;-4.90;99.90;;;;;;5029258;28;20492;-83
2022/12/14 02:14:27;;;;;;;50.65;23.80;;;-3.70;99.90;;;;;;5023186;28;20530;-83
2022/12/14 02:16:54;;;;;;;46.15;24.88;;;-5.00;99.90;;;;;;5014243;28;20037;-82
2022/12/14 02:19:21;;;;;;;45.88;23.45;;;-5.00;99.90;;;;;;5008600;28;20546;-83
2022/12/14 02:22:08;;;;;;;48.80;24.58;;;-5.00;99.90;;;;;;5015556;28;20038;-84
2022/12/14 02:24:58;;;;;;;47.17;23.35;;;-5.10;99.90;;;;;;5019140;28;20045;-83
2022/12/14 02:27:48;;;;;;;48.42;24.70;;;-5.10;99.90;;;;;;5020670;28;20179;-83
2022/12/14 02:30:23;;;;;;;49.40;24.05;;;-5.50;99.90;;;;;;5012553;28;20053;-83
2022/12/14 02:33:27;;;;;;;51.65;26.45;;;-5.10;99.90;;;;;;5024175;28;20128;-83
2022/12/14 02:36:51;;;;;;;49.40;24.65;;;-5.10;99.90;;;;;;4994119;28;20511;-83
2022/12/14 02:39:39;;;;;;;58.45;27.05;;;-5.10;99.90;;;;;;4965313;28;20053;-83
2022/12/14 02:42:13;;;;;;;49.60;25.98;;;-5.10;99.90;;;;;;4949596;28;20038;-83
2022/12/14 02:44:41;;;;;;;;;;;-5.10;99.90;;;;;;4950704;28;20441;-83
2022/12/14 02:47:14;;;;;;;49.47;24.67;;;-5.00;99.90;;;;;;4964673;28;19925;-83
2022/12/14 02:49:50;;;;;;;50.15;25.17;;;-5.00;99.90;;;;;;4964475;28;20050;-83
2022/12/14 02:52:26;;;;;;;56.30;25.65;;;-3.90;99.90;;;;;;4949768;28;20125;-83
2022/12/14 02:55:02;;;;;;;53.05;26.63;;;-5.00;99.90;;;;;;4958064;28;20480;-83
2022/12/14 02:57:37;;;;;;;52.65;23.67;;;-4.40;99.90;;;;;;4965356;28;20043;-83
2022/12/14 03:00:05;;;;;;;49.25;24.42;;;-5.00;99.90;;;;;;4968190;28;20054;-82
2022/12/14 03:02:34;;;;;;;46.03;23.40;;;-5.10;99.90;;;;;;4965901;28;20038;-82
2022/12/14 03:05:01;;;;;;;49.42;24.40;;;-4.60;99.90;;;;;;4949806;28;20137;-81
2022/12/14 03:07:36;;;;;;;51.58;23.73;;;-5.10;99.90;;;;;;4949384;28;20062;-81
2022/12/14 03:10:22;;;;;;;48.33;23.70;;;-5.20;99.90;;;;;;4949748;28;20043;-81
2022/12/14 03:12:55;;;;;;;48.17;23.80;;;-5.20;99.90;;;;;;4982251;28;20084;-81
2022/12/14 03:15:23;;;;;;;51.47;23.95;;;-5.20;99.90;;;;;;5012623;28;20116;-81
2022/12/14 03:17:53;;;;;;;49.75;23.30;;;-5.40;99.90;;;;;;5004666;28;20056;-82
2022/12/14 03:20:22;;;;;;;50.08;23.88;;;-5.30;99.90;;;;;;5011560;28;20061;-81
2022/12/14 03:23:03;;;;;;;50.30;23.15;;;-5.30;99.90;;;;;;5019622;28;20042;-81
2022/12/14 03:25:34;;;;;;;49.70;23.52;;;-5.40;99.90;;;;;;5022971;28;20050;-81
2022/12/14 03:28:30;;;;;;;49.38;23.42;;;-5.40;99.90;;;;;;5022191;28;20574;-81
2022/12/14 03:31:09;;;;;;;47.38;24.20;;;-5.40;99.90;;;;;;5014814;28;20069;-81
2022/12/14 03:33:37;;;;;;;52.45;23.80;;;-5.50;99.90;;;;;;5035319;28;20041;-82
2022/12/14 03:36:16;;;;;;;51.17;24.90;;;-5.50;99.90;;;;;;5017737;28;20040;-81
2022/12/14 03:38:45;;;;;;;47.58;24.30;;;-5.60;99.90;;;;;;5026445;28;20037;-81
2022/12/14 03:41:39;;;;;;;51.10;23.88;;;-5.40;99.90;;;;;;5017745;28;20062;-81
2022/12/14 03:44:15;;;;;;;45.83;23.40;;;-5.70;99.90;;;;;;4985224;28;20058;-82
2022/12/14 03:47:05;;;;;;;49.20;24.45;;;-5.70;99.90;;;;;;5025846;28;20094;-81
2022/12/14 03:50:00;;;;;;;48.35;23.67;;;-5.70;99.90;;;;;;5021378;28;20034;-81
2022/12/14 03:52:36;;;;;;;52.58;24.45;;;-5.70;99.90;;;;;;5019864;28;20041;-81
2022/12/14 03:55:27;;;;;;;52.50;24.13;;;-5.70;99.90;;;;;;5021447;28;20053;-81
2022/12/14 03:58:04;;;;;;;52.13;22.95;;;-5.30;99.90;;;;;;5014777;28;20396;-81
2022/12/14 04:00:38;;;;;;;48.90;24.48;;;-5.80;99.90;;;;;;5013972;28;20049;-81
2022/12/14 04:03:12;;;;;;;47.97;23.35;;;-5.80;99.90;;;;;;5022461;28;20048;-81
2022/12/14 04:05:40;;;;;;;45.25;24.00;;;-5.80;99.90;;;;;;5011967;28;20140;-81
2022/12/14 04:08:12;;;;;;;48.95;25.05;;;-5.80;99.90;;;;;;5024987;28;20049;-81
2022/12/14 04:19:25;;;;;;;48.95;23.40;;;-5.80;99.90;;;;;;5019751;28;20113;-81
2022/12/14 04:22:20;;;;;;;49.17;22.73;;;-5.80;99.90;;;;;;5026464;28;20045;-81
2022/12/14 04:29:55;;;;;;;45.77;22.63;;;-5.70;99.90;;;;;;5030476;28;20054;-80
2022/12/14 04:31:08;;;;;;;51.25;23.65;;;-5.90;99.90;;;;;;5018043;28;20045;-81
2022/12/14 04:33:46;;;;;;;52.30;25.02;;;-5.90;99.90;;;;;;5012476;28;20034;-81
2022/12/14 04:36:29;;;;;;;58.63;24.15;;;-6.00;99.90;;;;;;5016605;28;20044;-81
2022/12/14 04:39:10;;;;;;;44.10;22.50;;;-6.00;99.90;;;;;;5014986;28;20163;-81
2022/12/14 04:41:42;;;;;;;52.58;23.75;;;-6.00;99.90;;;;;;5018874;28;20034;-81
2022/12/14 04:44:26;;;;;;;47.63;23.23;;;-5.90;99.90;;;;;;5013737;28;20050;-81
2022/12/14 04:46:53;;;;;;;50.03;24.17;;;-5.90;99.90;;;;;;5013057;28;20057;-81
2022/12/14 04:49:25;;;;;;;50.97;24.02;;;-6.50;99.90;;;;;;5016872;28;20105;-81
2022/12/14 04:51:57;;;;;;;49.60;22.85;;;-6.00;99.90;;;;;;5013323;28;20073;-80
2022/12/14 04:54:26;;;;;;;47.38;23.50;;;-6.00;99.90;;;;;;5010934;28;20033;-81
2022/12/14 04:57:14;;;;;;;51.28;23.35;;;-6.10;99.90;;;;;;5021282;28;20492;-81
2022/12/14 04:59:40;;;;;;;45.55;21.63;;;-6.00;99.90;;;;;;5010702;28;20038;-81
2022/12/14 05:02:21;;;;;;;48.30;21.48;;;-6.00;99.90;;;;;;5013874;28;20770;-81
2022/12/14 05:04:58;;;;;;;53.78;23.80;;;-6.00;99.90;;;;;;5016969;28;20045;-81
2022/12/14 05:07:52;;;;;;;57.53;24.70;;;-5.40;99.90;;;;;;5007183;28;20045;-81
2022/12/14 05:10:25;;;;;;;47.55;25.40;;;-6.00;99.90;;;;;;5025304;28;20084;-81
2022/12/14 05:13:01;;;;;;;46.15;22.15;;;-6.00;99.90;;;;;;5017882;28;20060;-81
2022/12/14 05:15:34;;;;;;;46.78;23.38;;;-6.00;99.90;;;;;;5018196;28;20041;-81
2022/12/14 05:18:04;;;;;;;44.53;20.67;;;-6.00;99.90;;;;;;5014650;28;20069;-81
2022/12/14 05:20:30;;;;;;;47.45;23.48;;;-6.00;99.90;;;;;;5016664;28;20304;-81
2022/12/14 05:22:56;;;;;;;49.22;23.48;;;-6.00;99.90;;;;;;5010483;28;20477;-81
2022/12/14 05:25:21;;;;;;;50.38;23.95;;;-6.10;99.90;;;;;;5015918;28;20057;-81
2022/12/14 05:27:47;;;;;;;42.78;22.25;;;-6.10;99.90;;;;;;5012268;28;20034;-81
2022/12/14 05:30:13;;;;;;;48.25;23.02;;;-6.10;99.90;;;;;;5016045;28;20802;-80
2022/12/14 05:32:38;;;;;;;51.60;23.00;;;-6.10;99.90;;;;;;5012504;28;20038;-81
2022/12/14 05:35:05;;;;;;;48.20;24.55;;;-6.10;99.90;;;;;;5017638;28;20128;-81
2022/12/14 05:37:31;;;;;;;49.40;23.00;;;-5.60;99.90;;;;;;5022787;28;20036;-80
2022/12/14 05:39:56;;;;;;;45.67;22.98;;;-6.20;99.90;;;;;;5013039;28;20053;-81
2022/12/14 05:42:22;;;;;;;49.45;23.70;;;-6.10;99.90;;;;;;5017878;28;20056;-81
2022/12/14 05:44:48;;;;;;;48.83;22.55;;;-5.40;99.90;;;;;;5010878;28;20042;-81
2022/12/14 05:47:13;;;;;;;44.17;22.63;;;-6.20;99.90;;;;;;5013674;28;20049;-81
2022/12/14 05:49:39;;;;;;;47.90;21.83;;;-6.90;99.90;;;;;;5015804;28;20174;-80
2022/12/14 05:52:05;;;;;;;46.55;22.55;;;-6.30;99.90;;;;;;5017753;28;20041;-81
2022/12/14 05:54:31;;;;;;;48.55;23.50;;;-6.20;99.90;;;;;;5013310;28;20040;-81
2022/12/14 05:56:57;;;;;;;38.00;20.55;;;-6.20;99.90;;;;;;5011144;28;20050;-81
2022/12/14 05:59:22;;;;;;;51.28;21.63;;;-6.30;99.90;;;;;;5012867;28;20060;-81
2022/12/14 06:01:49;;;;;;;44.45;21.50;;;-6.50;99.90;;;;;;5011595;28;20038;-81
2022/12/14 06:04:16;;;;;;;49.20;21.27;;;-5.00;99.90;;;;;;5016812;28;20388;-81
2022/12/14 06:06:41;;;;;;;42.97;21.52;;;-5.80;99.90;;;;;;5017395;28;20077;-81
2022/12/14 06:09:09;;;;;;;49.85;22.60;;;-6.30;99.90;;;;;;5017135;28;20069;-80
2022/12/14 06:11:39;;;;;;;47.85;20.95;;;-6.30;99.90;;;;;;5023221;28;20041;-81
2022/12/14 06:14:07;;;;;;;49.20;21.92;;;-6.30;99.90;;;;;;5022486;28;20042;-81
2022/12/14 06:16:33;;;;;;;56.25;23.60;;;-6.00;99.90;;;;;;5020281;28;20166;-81
2022/12/14 06:19:00;;;;;;;48.25;22.13;;;-6.30;99.90;;;;;;5021917;28;20064;-81
2022/12/14 06:21:28;;;;;;;47.30;21.63;;;-6.30;99.90;;;;;;5019350;28;20595;-82
2022/12/14 06:23:55;;;;;;;43.35;20.98;;;-6.30;99.90;;;;;;5010709;28;20046;-82
2022/12/14 06:26:21;;;;;;;52.70;22.67;;;-6.40;99.90;;;;;;5010592;28;20042;-82
2022/12/14 06:28:48;;;;;;;45.10;20.77;;;-6.30;99.90;;;;;;5021103;28;20068;-82
2022/12/14 06:31:15;;;;;;;54.22;22.88;;;-6.30;99.90;;;;;;5018343;28;20077;-82
2022/12/14 06:33:41;;;;;;;46.65;21.75;;;-5.60;99.90;;;;;;5014940;28;20056;-81
2022/12/14 06:36:21;;;;;;;44.80;21.25;;;-6.30;99.90;;;;;;5023553;28;20048;-83
2022/12/14 06:38:46;;;;;;;46.15;21.70;;;-6.30;99.90;;;;;;5015553;28;20380;-82
2022/12/14 06:41:12;;;;;;;56.08;22.20;;;-6.30;99.90;;;;;;5018327;28;20046;-84
2022/12/14 06:43:38;;;;;;;47.25;22.88;;;-6.30;99.90;;;;;;5011930;28;20041;-82
2022/12/14 06:46:12;;;;;;;41.72;20.27;;;-6.30;99.90;;;;;;5018050;28;20045;-83
2022/12/14 06:48:38;;;;;;;49.33;21.38;;;-6.30;99.90;;;;;;5018111;28;20049;-81
2022/12/14 06:51:05;;;;;;;47.53;22.20;;;-6.30;99.90;;;;;;5010538;28;20045;-81
2022/12/14 06:53:32;;;;;;;42.22;20.30;;;-6.50;99.90;;;;;;5021967;28;20482;-81
2022/12/14 06:56:13;;;;;;;47.97;22.65;;;-6.30;99.90;;;;;;5014757;28;20038;-82
2022/12/14 06:58:39;;;;;;;47.80;21.77;;;-6.30;99.90;;;;;;5002509;28;20045;-82
2022/12/14 07:01:08;;;;;;;49.85;21.08;;;-6.30;99.90;;;;;;5008877;28;20087;-81
2022/12/14 07:03:34;;;;;;;47.83;20.85;;;-6.30;99.90;;;;;;5019525;28;20068;-81
2022/12/14 07:06:02;;;;;;;45.40;20.08;;;-6.30;99.90;;;;;;5020702;28;20041;-84
2022/12/14 07:08:30;;;;;;;43.00;20.38;;;-6.40;99.90;;;;;;5021481;28;20029;-83
2022/12/14 07:10:56;;;;;;;43.38;21.45;;;-7.30;99.90;;;;;;5016965;28;20727;-83
2022/12/14 07:13:22;;;;;;;42.00;21.92;;;-6.50;99.90;;;;;;5009304;28;20377;-82
2022/12/14 07:15:55;;;;;;;52.15;22.00;;;-6.40;99.90;;;;;;5011074;28;20405;-85
2022/12/14 07:18:21;;;;;;;44.88;21.17;;;-7.10;99.90;;;;;;5014570;28;20507;-81
2022/12/14 07:20:58;;;;;;;51.25;22.52;;;-6.40;99.90;;;;;;5019173;28;20472;-85
2022/12/14 07:23:24;;;;;;;45.85;21.90;;;-6.40;99.90;;;;;;5026261;28;20436;-84
2022/12/14 07:25:51;;;;;;;46.92;20.30;;;-6.40;99.90;;;;;;5001970;28;20046;-83
2022/12/14 07:28:17;;;;;;;45.97;20.85;;;-6.40;99.90;;;;;;5018969;28;20171;-82
2022/12/14 07:30:43;;;;;;;43.03;21.40;;;-6.40;99.90;;;;;;5014298;28;20042;-82
2022/12/14 07:33:09;;;;;;;50.42;21.45;;;-6.40;99.90;;;;;;5016186;28;20048;-83
2022/12/14 07:35:35;;;;;;;45.22;22.17;;;-6.50;99.90;;;;;;4999022;28;20048;-82
2022/12/14 07:38:02;;;;;;;48.08;21.58;;;-7.20;99.90;;;;;;5013037;28;20041;-85
2022/12/14 07:40:28;;;;;;;42.55;21.67;;;-6.40;99.90;;;;;;5016149;28;20413;-81
2022/12/14 07:42:54;;;;;;;47.33;21.98;;;-6.40;99.90;;;;;;5014011;28;20054;-81
2022/12/14 07:45:19;;;;;;;49.97;21.52;;;-6.40;99.90;;;;;;5011659;28;20056;-81
2022/12/14 07:47:45;;;;;;;52.13;22.23;;;-7.00;99.90;;;;;;5017537;28;20037;-81
2022/12/14 07:50:11;;;;;;;46.97;20.15;;;-6.50;99.90;;;;;;5012891;28;20042;-82
2022/12/14 07:52:36;;;;;;;44.78;21.38;;;-6.50;99.90;;;;;;5017323;28;20053;-81
2022/12/14 07:55:02;;;;;;;46.35;20.05;;;-7.60;99.90;;;;;;5014897;28;20178;-81
2022/12/14 07:57:28;;;;;;;46.05;20.48;;;-6.60;99.90;;;;;;5010855;28;20072;-81
2022/12/14 07:59:53;;;;;;;43.90;19.20;;;-6.60;99.90;;;;;;5017505;28;20117;-82
2022/12/14 08:02:19;;;;;;;49.55;21.38;;;-6.60;99.90;;;;;;5011110;28;20496;-82
2022/12/14 08:04:45;;;;;;;44.90;20.42;;;-7.30;99.90;;;;;;5016989;28;20030;-85
2022/12/14 08:07:10;;;;;;;50.08;21.23;;;-6.60;99.90;;;;;;5014405;28;20046;-82
2022/12/14 08:09:36;;;;;;;48.92;22.27;;;-6.70;99.90;;;;;;5021443;28;20034;-82
2022/12/14 08:12:01;;;;;;;47.15;21.20;;;-3.80;99.90;;;;;;5014239;28;20041;-82
2022/12/14 08:14:27;;;;;;;45.78;21.40;;;-6.70;99.90;;;;;;5016658;28;20084;-82
2022/12/14 08:16:53;;;;;;;48.78;22.05;;;-6.60;99.90;;;;;;5013995;28;20477;-83
2022/12/14 08:19:19;;;;;;;41.92;19.90;;;-6.70;99.90;;;;;;5031252;28;20046;-82
2022/12/14 08:21:44;;;;;;;45.67;20.63;;;-7.00;99.90;;;;;;5022419;28;20056;-82
2022/12/14 08:24:12;;;;;;;49.97;22.45;;;-6.70;99.90;;;;;;5026983;28;20044;-81
2022/12/14 08:26:37;;;;;;;47.75;19.67;;;-6.30;99.90;;;;;;5017372;28;20052;-82
2022/12/14 08:29:04;;;;;;;44.60;20.30;;;-6.60;99.90;;;;;;5016122;28;20045;-83
2022/12/14 08:31:30;;;;;;;49.67;21.45;;;-6.60;99.90;;;;;;5021719;28;20037;-83
2022/12/14 08:33:57;;;;;;;48.42;21.80;;;-6.70;99.90;;;;;;5020639;28;20779;-84
2022/12/14 08:36:28;;;;;;;47.47;20.42;;;-6.60;99.90;;;;;;5014606;28;20480;-84
2022/12/14 08:39:05;;;;;;;49.30;21.52;;;-6.50;99.90;;;;;;5016896;28;20061;-84
2022/12/14 08:41:31;;;;;;;46.78;21.17;;;-6.50;99.90;;;;;;5017290;28;20050;-84
2022/12/14 08:43:59;;;;;;;42.97;20.05;;;-6.50;99.90;;;;;;5010279;28;20392;-83
2022/12/14 08:46:26;;;;;;;46.92;20.73;;;-6.50;99.90;;;;;;5013585;28;20056;-83
2022/12/14 08:48:53;;;;;;;43.08;19.75;;;-6.40;99.90;;;;;;5015274;28;20095;-83
2022/12/14 08:51:19;;;;;;;49.67;20.85;;;-6.40;99.90;;;;;;5010107;28;20534;-83
2022/12/14 08:53:46;;;;;;;47.47;22.10;;;-6.30;99.90;;;;;;5016930;28;20038;-83
2022/12/14 08:56:15;;;;;;;50.72;21.50;;;-6.20;99.90;;;;;;5010220;28;20405;-84
2022/12/14 08:58:42;;;;;;;55.13;22.67;;;-6.20;99.90;;;;;;5012915;28;20090;-83
2022/12/14 09:01:19;;;;;;;51.10;21.98;;;-6.20;99.90;;;;;;5015603;28;20052;-82
2022/12/14 09:03:45;;;;;;;57.28;22.88;;;-6.10;99.90;;;;;;5017575;28;20502;-82
2022/12/14 09:06:13;;;;;;;50.58;22.73;;;-6.10;99.90;;;;;;5013733;28;20084;-82
2022/12/14 09:08:39;;;;;;;45.92;20.70;;;-6.00;99.90;;;;;;5018613;28;20056;-81
2022/12/14 09:11:08;;;;;;;44.25;20.92;;;-6.00;99.90;;;;;;5014767;28;20037;-81
2022/12/14 09:13:34;;;;;;;48.58;21.08;;;-5.70;99.90;;;;;;5010844;28;20057;-82
2022/12/14 09:16:06;;;;;;;49.55;22.27;;;-5.90;99.90;;;;;;5017140;28;20038;-84
2022/12/14 09:18:35;;;;;;;43.50;19.83;;;-6.10;99.90;;;;;;5021015;28;20045;-84
2022/12/14 09:21:01;;;;;;;49.60;21.95;;;-5.80;99.90;;;;;;5017886;28;20041;-81
2022/12/14 09:23:27;;;;;;;47.42;22.27;;;-5.50;99.90;;;;;;5011503;28;20558;-81
2022/12/14 09:26:09;;;;;;;47.00;21.27;;;-5.70;99.90;;;;;;5013266;28;20556;-82
2022/12/14 09:28:36;;;;;;;50.65;20.10;;;-5.70;99.90;;;;;;5015802;28;20381;-81
2022/12/14 09:31:06;;;;;;;49.25;21.48;;;-5.60;99.90;;;;;;5017982;28;20072;-81
2022/12/14 09:33:32;;;;;;;43.17;20.05;;;-5.60;99.90;;;;;;5008820;28;20042;-81
2022/12/14 09:36:01;;;;;;;46.40;20.42;;;-5.60;99.90;;;;;;5015919;28;20048;-81
2022/12/14 09:38:29;;;;;;;44.22;21.13;;;-4.40;99.90;;;;;;5010020;28;20038;-80
2022/12/14 09:40:57;;;;;;;52.47;21.92;;;-5.50;99.90;;;;;;5010002;28;20096;-81
2022/12/14 09:43:38;;;;;;;40.95;18.98;;;-5.40;99.90;;;;;;5013121;28;20038;-81
2022/12/14 09:46:22;;;;;;;41.00;20.45;;;-5.60;99.90;;;;;;5017648;28;20038;-81
2022/12/14 09:48:48;;;;;;;40.80;20.13;;;-5.40;99.90;;;;;;5017186;28;20521;-81
2022/12/14 09:51:20;;;;;;;43.65;19.23;;;-5.30;99.90;;;;;;5018759;28;20053;-81
2022/12/14 09:53:49;;;;;;;40.30;19.63;;;-5.30;99.90;;;;;;5008400;28;20371;-81
2022/12/14 09:56:19;;;;;;;45.10;20.60;;;-5.20;99.90;;;;;;5007262;28;20125;-81
2022/12/14 09:58:53;;;;;;;42.40;21.08;;;-5.60;99.90;;;;;;5017351;28;20476;-82
2022/12/14 10:01:21;;;;;;;46.13;20.70;;;-5.10;99.90;;;;;;5021828;28;20516;-82
2022/12/14 10:03:53;;;;;;;45.35;21.40;;;-5.10;99.90;;;;;;5021585;28;20931;-81
2022/12/14 10:06:33;;;;;;;44.15;19.73;;;-5.00;99.90;;;;;;5017156;28;20053;-81
2022/12/14 10:09:21;;;;;;;49.65;23.50;;;-5.00;99.90;;;;;;5012624;28;20037;-80
2022/12/14 10:11:57;;;;;;;44.92;20.67;;;-4.90;99.90;;;;;;5013771;28;20609;-82
2022/12/14 10:14:29;;;;;;;39.83;18.92;;;-4.90;99.90;;;;;;5012244;28;20041;-81
2022/12/14 10:17:13;;;;;;;39.30;19.30;;;-4.80;99.90;;;;;;5013978;28;20045;-81
2022/12/14 10:19:54;;;;;;;48.83;21.23;;;-4.70;99.90;;;;;;5014371;28;20037;-81
2022/12/14 10:22:24;;;;;;;43.55;20.30;;;-4.50;99.90;;;;;;5016585;28;20060;-81
2022/12/14 10:25:02;;;;;;;43.88;20.65;;;-4.60;99.90;;;;;;5015321;28;20082;-82
2022/12/14 10:27:29;;;;;;;45.45;21.58;;;-4.50;99.90;;;;;;5012617;28;20044;-82
2022/12/14 10:30:04;;;;;;;48.72;23.83;;;-4.40;99.90;;;;;;5014918;28;20041;-82
2022/12/14 10:32:38;;;;;;;48.22;21.95;;;-4.30;99.90;;;;;;5010107;28;20061;-82
2022/12/14 10:35:10;;;;;;;;;;;-4.30;99.90;;;;;;5013086;28;20104;-82
2022/12/14 10:37:40;;;;;;;42.97;22.48;;;-4.20;99.90;;;;;;5013262;28;20012;-82
2022/12/14 10:40:08;;;;;;;44.13;19.42;;;-4.10;99.90;;;;;;5010361;28;20057;-82
2022/12/14 10:43:02;;;;;;;41.60;19.80;;;-4.10;99.90;;;;;;5017510;28;20603;-82
2022/12/14 10:45:42;;;;;;;39.03;19.87;;;-2.00;99.90;;;;;;5007729;28;20030;-81
2022/12/14 10:48:45;;;;;;;41.28;20.83;;;-3.90;99.90;;;;;;5007087;28;20863;-82
2022/12/14 10:51:26;;;;;;;36.53;19.58;;;-3.90;99.90;;;;;;5007733;28;20046;-82
2022/12/14 10:54:10;;;;;;;43.35;19.05;;;-3.80;99.90;;;;;;5008754;28;20037;-81
2022/12/14 10:56:40;;;;;;;42.47;18.17;;;-3.70;99.90;;;;;;5015237;28;20086;-82
2022/12/14 10:59:28;;;;;;;37.03;18.17;;;-3.60;99.90;;;;;;5012245;28;20042;-82
2022/12/14 11:02:16;;;;;;;36.72;17.75;;;-3.50;99.90;;;;;;5010106;28;20057;-82
2022/12/14 11:04:49;;;;;;;42.53;17.73;;;-3.30;99.90;;;;;;5009084;28;20453;-82
2022/12/14 11:07:17;;;;;;;41.72;19.98;;;-3.20;99.90;;;;;;5011019;28;20038;-82
2022/12/14 11:09:43;;;;;;;39.00;18.38;;;-3.10;99.90;;;;;;5012227;28;20037;-82
2022/12/14 11:12:12;;;;;;;43.22;18.67;;;-3.00;99.90;;;;;;5008703;28;20045;-81
2022/12/14 11:14:58;;;;;;;32.00;15.95;;;-2.90;99.90;;;;;;5008638;28;20040;-82
2022/12/14 11:17:40;;;;;;;38.17;16.98;;;-2.80;99.90;;;;;;5019346;28;20136;-82
2022/12/14 11:20:15;;;;;;;33.05;17.30;;;-2.70;99.90;;;;;;5013438;28;20056;-82
2022/12/14 11:22:48;;;;;;;35.08;17.10;;;-2.50;99.90;;;;;;5008799;28;20030;-82
2022/12/14 11:25:34;;;;;;;34.95;17.05;;;-2.40;99.90;;;;;;5010298;28;20145;-82
2022/12/14 11:28:17;;;;;;;33.90;17.30;;;-2.30;99.90;;;;;;5008151;28;20531;-82
2022/12/14 11:31:05;;;;;;;32.30;16.40;;;-2.10;99.90;;;;;;5011267;28;20045;-82
2022/12/14 11:33:44;;;;;;;36.03;17.23;;;-2.00;99.90;;;;;;5013934;28;20033;-83
2022/12/14 11:36:37;;;;;;;35.10;16.65;;;-1.90;99.90;;;;;;5012273;28;20397;-82
2022/12/14 11:39:21;;;;;;;33.33;15.27;;;-1.80;99.90;;;;;;5013654;28;20103;-82
2022/12/14 11:41:50;;;;;;;28.08;15.02;;;-1.60;99.90;;;;;;5011628;28;20052;-82
2022/12/14 11:44:16;;;;;;;30.52;14.75;;;-1.40;99.90;;;;;;5014421;28;20151;-82
2022/12/14 11:47:04;;;;;;;29.33;14.13;;;-1.30;99.90;;;;;;5015154;28;20476;-82
2022/12/14 11:49:37;;;;;;;29.35;13.68;;;-1.10;99.90;;;;;;5014395;28;20526;-82
2022/12/14 11:52:11;;;;;;;28.73;13.93;;;-1.00;99.90;;;;;;5012298;28;20050;-82
2022/12/14 11:54:56;;;;;;;27.00;13.48;;;-0.90;99.90;;;;;;5012035;28;20052;-82
2022/12/14 11:57:24;;;;;;;25.65;12.70;;;-0.80;99.90;;;;;;5020505;28;20488;-82
2022/12/14 11:59:56;;;;;;;28.95;13.30;;;-0.70;99.90;;;;;;5020647;28;20129;-83
2022/12/14 12:02:34;;;;;;;26.25;13.77;;;-0.60;99.90;;;;;;5025351;28;20045;-82
2022/12/14 12:05:14;;;;;;;24.55;13.63;;;-0.50;99.90;;;;;;5017888;28;20080;-82
2022/12/14 12:07:52;;;;;;;24.63;12.73;;;-0.40;99.90;;;;;;5016718;28;20041;-82
2022/12/14 12:10:26;;;;;;;23.20;11.80;;;-0.40;99.90;;;;;;5012012;28;20116;-82
2022/12/14 12:12:58;;;;;;;25.73;12.53;;;-0.30;99.90;;;;;;5016595;28;20038;-82
2022/12/14 12:15:38;;;;;;;20.83;10.88;;;-0.20;99.90;;;;;;5014262;28;20045;-82
2022/12/14 12:18:07;;;;;;;17.73;10.52;;;-0.20;99.90;;;;;;5015192;28;20048;-82
2022/12/14 12:20:47;;;;;;;19.83;10.27;;;-0.20;99.90;;;;;;5010259;28;20480;-82
2022/12/14 12:23:18;;;;;;;21.17;11.00;;;0.70;99.90;;;;;;5014697;28;20053;-82
2022/12/14 12:25:46;;;;;;;26.60;12.82;;;-0.20;99.90;;;;;;5014935;28;20085;-83
2022/12/14 12:28:19;;;;;;;25.15;11.50;;;-0.30;99.90;;;;;;5015943;28;20044;-82
2022/12/14 12:30:50;;;;;;;24.40;12.05;;;-0.20;99.90;;;;;;5019039;28;20142;-82
2022/12/14 12:33:27;;;;;;;35.17;15.65;;;-0.20;99.90;;;;;;5019630;28;20423;-82
2022/12/14 12:35:55;;;;;;;38.03;18.40;;;-0.20;99.90;;;;;;5011715;28;20045;-82
2022/12/14 12:38:35;;;;;;;22.05;11.63;;;-0.20;99.90;;;;;;5017667;28;20049;-82
2022/12/14 12:41:19;;;;;;;22.30;12.15;;;0.00;99.90;;;;;;5017053;28;20050;-82
2022/12/14 12:43:53;;;;;;;37.03;20.05;;;-0.30;99.90;;;;;;5021615;28;20054;-82
2022/12/14 12:46:34;;;;;;;25.83;13.25;;;-0.30;99.90;;;;;;5020344;28;20496;-85
2022/12/14 12:49:04;;;;;;;22.40;12.52;;;-0.30;99.90;;;;;;5015457;28;20049;-81
2022/12/14 12:51:40;;;;;;;22.45;12.05;;;-0.30;99.90;;;;;;5027117;28;20038;-81
2022/12/14 12:54:14;;;;;;;22.88;11.68;;;-0.40;99.90;;;;;;5018608;28;20496;-83
2022/12/14 12:56:51;;;;;;;27.07;11.63;;;-0.40;99.90;;;;;;5022878;28;20077;-83
2022/12/14 12:59:23;;;;;;;23.27;11.18;;;-0.50;99.90;;;;;;5016332;28;20026;-83
2022/12/14 13:01:52;;;;;;;22.67;10.88;;;-0.50;99.90;;;;;;5015877;28;20496;-83
2022/12/14 13:04:39;;;;;;;23.77;11.93;;;-0.60;99.90;;;;;;5014708;28;20128;-82